sensor_id;sensor_type;location;lat;lon;timestamp;pressure;altitude;pressure_sealevel;temperature;humidity
26865;BME280;40618;51.166;10.322;2023-01-27T00:00:24;97781.00;;;-1.45;89.44
26865;BME280;40618;51.166;10.322;2023-01-27T00:02:50;97782.75;;;-1.42;89.33
26865;BME280;40618;51.166;10.322;2023-01-27T00:05:16;97786.97;;;-1.43;89.38
26865;BME280;40618;51.166;10.322;2023-01-27T00:07:42;97779.34;;;-1.43;89.21
26865;BME280;40618;51.166;10.322;2023-01-27T00:10:17;97784.47;;;-1.41;89.35
26865;BME280;40618;51.166;10.322;2023-01-27T00:12:44;97784.44;;;-1.43;89.34
26865;BME280;40618;51.166;10.322;2023-01-27T00:15:31;97780.09;;;-1.47;89.20
26865;BME280;40618;51.166;10.322;2023-01-27T00:17:58;97775.94;;;-1.45;89.41
26865;BME280;40618;51.166;10.322;2023-01-27T00:20:24;97772.56;;;-1.44;88.88
26865;BME280;40618;51.166;10.322;2023-01-27T00:23:17;97775.19;;;-1.41;89.36
26865;BME280;40618;51.166;10.322;2023-01-27T00:26:05;97779.41;;;-1.40;89.40
26865;BME280;40618;51.166;10.322;2023-01-27T00:28:34;97773.53;;;-1.39;89.33
26865;BME280;40618;51.166;10.322;2023-01-27T00:31:00;97770.16;;;-1.38;89.26
26865;BME280;40618;51.166;10.322;2023-01-27T00:33:26;97776.91;;;-1.38;89.21
26865;BME280;40618;51.166;10.322;2023-01-27T00:36:00;97771.88;;;-1.37;89.53
26865;BME280;40618;51.166;10.322;2023-01-27T00:38:30;97782.06;;;-1.35;89.35
26865;BME280;40618;51.166;10.322;2023-01-27T00:40:58;97774.47;;;-1.33;89.38
26865;BME280;40618;51.166;10.322;2023-01-27T00:43:42;97774.50;;;-1.32;89.15
26865;BME280;40618;51.166;10.322;2023-01-27T00:46:07;97766.91;;;-1.30;89.38
26865;BME280;40618;51.166;10.322;2023-01-27T00:48:34;97778.75;;;-1.32;89.38
26865;BME280;40618;51.166;10.322;2023-01-27T00:51:00;97776.22;;;-1.32;89.63
26865;BME280;40618;51.166;10.322;2023-01-27T00:53:26;97773.59;;;-1.34;89.23
26865;BME280;40618;51.166;10.322;2023-01-27T00:55:52;97777.00;;;-1.35;89.42
26865;BME280;40618;51.166;10.322;2023-01-27T00:58:18;97771.06;;;-1.34;89.26
26865;BME280;40618;51.166;10.322;2023-01-27T01:00:44;97771.06;;;-1.34;89.45
26865;BME280;40618;51.166;10.322;2023-01-27T01:03:10;97769.38;;;-1.35;89.36
26865;BME280;40618;51.166;10.322;2023-01-27T01:05:35;97763.44;;;-1.34;89.65
26865;BME280;40618;51.166;10.322;2023-01-27T01:08:01;97767.72;;;-1.33;89.34
26865;BME280;40618;51.166;10.322;2023-01-27T01:10:27;97777.91;;;-1.31;89.48
26865;BME280;40618;51.166;10.322;2023-01-27T01:12:52;97782.16;;;-1.30;89.77
26865;BME280;40618;51.166;10.322;2023-01-27T01:15:18;97778.81;;;-1.29;89.50
26865;BME280;40618;51.166;10.322;2023-01-27T01:17:43;97780.53;;;-1.28;89.89
26865;BME280;40618;51.166;10.322;2023-01-27T01:20:09;97780.59;;;-1.25;89.39
26865;BME280;40618;51.166;10.322;2023-01-27T01:22:35;97778.94;;;-1.23;89.62
26865;BME280;40618;51.166;10.322;2023-01-27T01:25:01;97778.06;;;-1.25;89.40
26865;BME280;40618;51.166;10.322;2023-01-27T01:27:27;97777.22;;;-1.26;89.68
26865;BME280;40618;51.166;10.322;2023-01-27T01:29:53;97774.66;;;-1.26;89.56
26865;BME280;40618;51.166;10.322;2023-01-27T01:32:19;97776.34;;;-1.25;89.49
26865;BME280;40618;51.166;10.322;2023-01-27T01:34:44;97775.50;;;-1.25;89.29
26865;BME280;40618;51.166;10.322;2023-01-27T01:37:10;97772.97;;;-1.25;89.42
26865;BME280;40618;51.166;10.322;2023-01-27T01:39:36;97781.41;;;-1.26;89.40
26865;BME280;40618;51.166;10.322;2023-01-27T01:42:01;97778.88;;;-1.26;89.56
26865;BME280;40618;51.166;10.322;2023-01-27T01:44:29;97781.38;;;-1.28;89.71
26865;BME280;40618;51.166;10.322;2023-01-27T01:46:57;97784.75;;;-1.27;89.54
26865;BME280;40618;51.166;10.322;2023-01-27T01:49:27;97789.03;;;-1.26;89.31
26865;BME280;40618;51.166;10.322;2023-01-27T01:52:01;97783.13;;;-1.25;89.49
26865;BME280;40618;51.166;10.322;2023-01-27T01:54:36;97787.44;;;-1.23;89.38
26865;BME280;40618;51.166;10.322;2023-01-27T01:57:30;97785.69;;;-1.24;89.49
26865;BME280;40618;51.166;10.322;2023-01-27T02:00:05;97792.47;;;-1.24;89.63
26865;BME280;40618;51.166;10.322;2023-01-27T02:02:32;97789.94;;;-1.24;89.56
26865;BME280;40618;51.166;10.322;2023-01-27T02:05:03;97784.00;;;-1.23;89.53
26865;BME280;40618;51.166;10.322;2023-01-27T02:07:49;97790.00;;;-1.21;89.37
26865;BME280;40618;51.166;10.322;2023-01-27T02:10:18;97783.25;;;-1.19;89.56
26865;BME280;40618;51.166;10.322;2023-01-27T02:12:44;97779.03;;;-1.18;89.61
26865;BME280;40618;51.166;10.322;2023-01-27T02:15:10;97782.44;;;-1.18;89.35
26865;BME280;40618;51.166;10.322;2023-01-27T02:17:37;97784.19;;;-1.15;89.79
26865;BME280;40618;51.166;10.322;2023-01-27T02:20:36;97788.41;;;-1.16;89.50
26865;BME280;40618;51.166;10.322;2023-01-27T02:26:25;97784.22;;;-1.14;89.50
26865;BME280;40618;51.166;10.322;2023-01-27T02:29:05;97784.22;;;-1.14;89.63
26865;BME280;40618;51.166;10.322;2023-01-27T02:31:33;97779.94;;;-1.15;89.55
26865;BME280;40618;51.166;10.322;2023-01-27T02:34:03;97775.75;;;-1.14;89.20
26865;BME280;40618;51.166;10.322;2023-01-27T02:36:41;97772.31;;;-1.15;89.59
26865;BME280;40618;51.166;10.322;2023-01-27T02:39:14;97771.53;;;-1.12;89.59
26865;BME280;40618;51.166;10.322;2023-01-27T02:41:44;97777.50;;;-1.12;89.56
26865;BME280;40618;51.166;10.322;2023-01-27T02:44:11;97784.25;;;-1.12;89.53
26865;BME280;40618;51.166;10.322;2023-01-27T02:46:37;97797.81;;;-1.12;89.23
26865;BME280;40618;51.166;10.322;2023-01-27T02:49:03;97786.81;;;-1.11;89.35
26865;BME280;40618;51.166;10.322;2023-01-27T02:51:29;97791.91;;;-1.11;89.41
26865;BME280;40618;51.166;10.322;2023-01-27T02:53:55;97791.91;;;-1.11;89.35
26865;BME280;40618;51.166;10.322;2023-01-27T02:56:21;97799.53;;;-1.11;89.51
26865;BME280;40618;51.166;10.322;2023-01-27T02:58:47;97785.13;;;-1.12;89.52
26865;BME280;40618;51.166;10.322;2023-01-27T03:01:13;97803.75;;;-1.11;89.54
26865;BME280;40618;51.166;10.322;2023-01-27T03:03:39;97798.69;;;-1.11;89.76
26865;BME280;40618;51.166;10.322;2023-01-27T03:06:14;97801.19;;;-1.13;89.54
26865;BME280;40618;51.166;10.322;2023-01-27T03:08:40;97805.44;;;-1.12;89.41
26865;BME280;40618;51.166;10.322;2023-01-27T03:11:07;97806.31;;;-1.10;89.58
26865;BME280;40618;51.166;10.322;2023-01-27T03:13:34;97806.31;;;-1.11;89.41
26865;BME280;40618;51.166;10.322;2023-01-27T03:16:01;97816.47;;;-1.11;89.38
26865;BME280;40618;51.166;10.322;2023-01-27T03:18:47;97810.56;;;-1.10;89.37
26865;BME280;40618;51.166;10.322;2023-01-27T03:21:16;97810.56;;;-1.10;89.35
26865;BME280;40618;51.166;10.322;2023-01-27T03:23:43;97808.00;;;-1.12;89.37
26865;BME280;40618;51.166;10.322;2023-01-27T03:26:10;97811.34;;;-1.13;89.47
26865;BME280;40618;51.166;10.322;2023-01-27T03:28:37;97817.31;;;-1.11;89.42
26865;BME280;40618;51.166;10.322;2023-01-27T03:31:08;97807.13;;;-1.12;89.53
26865;BME280;40618;51.166;10.322;2023-01-27T03:33:44;97819.03;;;-1.10;89.44
26865;BME280;40618;51.166;10.322;2023-01-27T03:36:12;97816.53;;;-1.08;89.18
26865;BME280;40618;51.166;10.322;2023-01-27T03:38:57;97819.91;;;-1.09;89.47
26865;BME280;40618;51.166;10.322;2023-01-27T03:41:41;97813.16;;;-1.07;89.45
26865;BME280;40618;51.166;10.322;2023-01-27T03:44:25;97815.72;;;-1.06;89.57
26865;BME280;40618;51.166;10.322;2023-01-27T03:47:09;97813.19;;;-1.06;89.65
26865;BME280;40618;51.166;10.322;2023-01-27T03:49:35;97831.88;;;-1.05;89.41
26865;BME280;40618;51.166;10.322;2023-01-27T03:52:00;97823.38;;;-1.06;89.53
26865;BME280;40618;51.166;10.322;2023-01-27T03:54:26;97819.16;;;-1.05;89.66
26865;BME280;40618;51.166;10.322;2023-01-27T03:56:52;97822.53;;;-1.05;89.13
26865;BME280;40618;51.166;10.322;2023-01-27T03:59:17;97822.56;;;-1.03;89.77
26865;BME280;40618;51.166;10.322;2023-01-27T04:01:43;97829.34;;;-1.04;89.37
26865;BME280;40618;51.166;10.322;2023-01-27T04:04:09;97832.75;;;-1.03;89.46
26865;BME280;40618;51.166;10.322;2023-01-27T04:06:54;97826.84;;;-1.02;89.49
26865;BME280;40618;51.166;10.322;2023-01-27T04:09:33;97826.03;;;-1.01;89.59
26865;BME280;40618;51.166;10.322;2023-01-27T04:12:02;97831.16;;;-0.98;89.53
26865;BME280;40618;51.166;10.322;2023-01-27T04:14:31;97824.34;;;-0.99;89.64
26865;BME280;40618;51.166;10.322;2023-01-27T04:17:02;97831.13;;;-0.99;89.51
26865;BME280;40618;51.166;10.322;2023-01-27T04:19:32;97829.44;;;-0.99;89.37
26865;BME280;40618;51.166;10.322;2023-01-27T04:21:59;97822.69;;;-0.98;89.59
26865;BME280;40618;51.166;10.322;2023-01-27T04:24:26;97821.00;;;-0.98;89.44
26865;BME280;40618;51.166;10.322;2023-01-27T04:26:59;97820.16;;;-0.98;89.40
26865;BME280;40618;51.166;10.322;2023-01-27T04:29:29;97821.84;;;-0.97;89.48
26865;BME280;40618;51.166;10.322;2023-01-27T04:31:57;97823.53;;;-0.98;89.28
26865;BME280;40618;51.166;10.322;2023-01-27T04:34:24;97826.94;;;-0.96;89.50
26865;BME280;40618;51.166;10.322;2023-01-27T04:36:50;97825.28;;;-0.95;89.32
26865;BME280;40618;51.166;10.322;2023-01-27T04:39:16;97826.09;;;-0.96;89.73
26865;BME280;40618;51.166;10.322;2023-01-27T04:41:43;97838.81;;;-0.96;89.32
26865;BME280;40618;51.166;10.322;2023-01-27T04:44:09;97836.22;;;-0.99;89.60
26865;BME280;40618;51.166;10.322;2023-01-27T04:46:36;97837.94;;;-0.98;89.87
26865;BME280;40618;51.166;10.322;2023-01-27T04:49:03;97831.13;;;-0.99;89.54
26865;BME280;40618;51.166;10.322;2023-01-27T04:51:30;97843.03;;;-0.98;89.46
26865;BME280;40618;51.166;10.322;2023-01-27T04:53:56;97842.19;;;-0.97;89.69
26865;BME280;40618;51.166;10.322;2023-01-27T04:58:57;97845.59;;;-0.97;89.46
26865;BME280;40618;51.166;10.322;2023-01-27T05:01:24;97850.69;;;-0.97;89.34
26865;BME280;40618;51.166;10.322;2023-01-27T05:03:50;97855.75;;;-0.97;89.81
26865;BME280;40618;51.166;10.322;2023-01-27T05:06:16;97849.00;;;-0.96;89.12
26865;BME280;40618;51.166;10.322;2023-01-27T05:08:41;97849.00;;;-0.96;89.36
26865;BME280;40618;51.166;10.322;2023-01-27T05:11:08;97854.06;;;-0.96;89.56
26865;BME280;40618;51.166;10.322;2023-01-27T05:13:34;97855.78;;;-0.95;89.65
26865;BME280;40618;51.166;10.322;2023-01-27T05:16:13;97846.50;;;-0.93;89.56
26865;BME280;40618;51.166;10.322;2023-01-27T05:18:42;97847.34;;;-0.94;89.63
26865;BME280;40618;51.166;10.322;2023-01-27T05:21:14;97859.22;;;-0.93;89.73
26865;BME280;40618;51.166;10.322;2023-01-27T05:23:41;97857.56;;;-0.93;89.51
26865;BME280;40618;51.166;10.322;2023-01-27T05:26:12;97863.50;;;-0.91;89.85
26865;BME280;40618;51.166;10.322;2023-01-27T05:28:41;97858.47;;;-0.89;89.66
26865;BME280;40618;51.166;10.322;2023-01-27T05:31:13;97864.38;;;-0.90;89.55
26865;BME280;40618;51.166;10.322;2023-01-27T05:33:44;97864.38;;;-0.90;89.80
26865;BME280;40618;51.166;10.322;2023-01-27T05:36:13;97861.84;;;-0.90;89.57
26865;BME280;40618;51.166;10.322;2023-01-27T05:38:41;97866.97;;;-0.89;89.21
26865;BME280;40618;51.166;10.322;2023-01-27T05:41:09;97873.75;;;-0.88;89.59
26865;BME280;40618;51.166;10.322;2023-01-27T05:43:37;97877.19;;;-0.86;89.56
26865;BME280;40618;51.166;10.322;2023-01-27T05:46:15;97876.34;;;-0.86;89.41
26865;BME280;40618;51.166;10.322;2023-01-27T05:48:45;97872.09;;;-0.86;89.31
26865;BME280;40618;51.166;10.322;2023-01-27T05:51:13;97872.97;;;-0.83;89.60
26865;BME280;40618;51.166;10.322;2023-01-27T05:53:41;97867.91;;;-0.83;89.66
26865;BME280;40618;51.166;10.322;2023-01-27T05:56:08;97872.19;;;-0.81;89.82
26865;BME280;40618;51.166;10.322;2023-01-27T05:58:36;97876.50;;;-0.78;89.65
26865;BME280;40618;51.166;10.322;2023-01-27T06:01:14;97869.75;;;-0.78;89.61
26865;BME280;40618;51.166;10.322;2023-01-27T06:03:42;97873.16;;;-0.76;89.52
26865;BME280;40618;51.166;10.322;2023-01-27T06:06:09;97873.09;;;-0.79;89.33
26865;BME280;40618;51.166;10.322;2023-01-27T06:08:37;97879.03;;;-0.78;89.92
26865;BME280;40618;51.166;10.322;2023-01-27T06:11:03;97887.53;;;-0.78;89.39
26865;BME280;40618;51.166;10.322;2023-01-27T06:13:30;97887.56;;;-0.76;89.55
26865;BME280;40618;51.166;10.322;2023-01-27T06:15:56;97890.13;;;-0.75;89.59
26865;BME280;40618;51.166;10.322;2023-01-27T06:18:23;97891.00;;;-0.74;89.57
26865;BME280;40618;51.166;10.322;2023-01-27T06:20:48;97892.69;;;-0.75;89.25
26865;BME280;40618;51.166;10.322;2023-01-27T06:23:16;97898.59;;;-0.76;89.66
26865;BME280;40618;51.166;10.322;2023-01-27T06:25:44;97902.78;;;-0.78;89.50
26865;BME280;40618;51.166;10.322;2023-01-27T06:28:12;97901.06;;;-0.79;89.72
26865;BME280;40618;51.166;10.322;2023-01-27T06:30:39;97906.16;;;-0.79;89.62
26865;BME280;40618;51.166;10.322;2023-01-27T06:33:06;97912.91;;;-0.79;89.45
26865;BME280;40618;51.166;10.322;2023-01-27T06:35:33;97917.16;;;-0.80;89.51
26865;BME280;40618;51.166;10.322;2023-01-27T06:38:01;97913.78;;;-0.79;89.41
26865;BME280;40618;51.166;10.322;2023-01-27T06:40:30;97920.53;;;-0.79;89.39
26865;BME280;40618;51.166;10.322;2023-01-27T06:42:57;97915.44;;;-0.79;89.57
26865;BME280;40618;51.166;10.322;2023-01-27T06:45:23;97907.81;;;-0.79;89.64
26865;BME280;40618;51.166;10.322;2023-01-27T06:47:58;97909.50;;;-0.80;89.51
26865;BME280;40618;51.166;10.322;2023-01-27T06:50:28;97912.91;;;-0.79;89.77
26865;BME280;40618;51.166;10.322;2023-01-27T06:53:02;97910.38;;;-0.79;89.81
26865;BME280;40618;51.166;10.322;2023-01-27T06:55:29;97909.53;;;-0.78;89.60
26865;BME280;40618;51.166;10.322;2023-01-27T06:57:55;97909.50;;;-0.80;89.89
26865;BME280;40618;51.166;10.322;2023-01-27T07:00:21;97918.88;;;-0.79;89.29
26865;BME280;40618;51.166;10.322;2023-01-27T07:02:47;97911.25;;;-0.79;89.77
26865;BME280;40618;51.166;10.322;2023-01-27T07:05:13;97912.91;;;-0.79;89.52
26865;BME280;40618;51.166;10.322;2023-01-27T07:07:39;97919.72;;;-0.78;89.45
26865;BME280;40618;51.166;10.322;2023-01-27T07:10:06;97927.38;;;-0.77;89.56
26865;BME280;40618;51.166;10.322;2023-01-27T07:12:33;97927.34;;;-0.78;89.66
26865;BME280;40618;51.166;10.322;2023-01-27T07:15:03;97928.16;;;-0.79;89.73
26865;BME280;40618;51.166;10.322;2023-01-27T07:17:30;97929.03;;;-0.79;89.30
26865;BME280;40618;51.166;10.322;2023-01-27T07:19:56;97922.22;;;-0.80;89.36
26865;BME280;40618;51.166;10.322;2023-01-27T07:22:21;97929.03;;;-0.79;89.63
26865;BME280;40618;51.166;10.322;2023-01-27T07:24:47;97934.13;;;-0.79;89.57
26865;BME280;40618;51.166;10.322;2023-01-27T07:27:13;97933.31;;;-0.78;89.81
26865;BME280;40618;51.166;10.322;2023-01-27T07:29:39;97929.03;;;-0.79;89.82
26865;BME280;40618;51.166;10.322;2023-01-27T07:32:04;97925.69;;;-0.78;89.71
26865;BME280;40618;51.166;10.322;2023-01-27T07:34:30;97932.47;;;-0.77;89.69
26865;BME280;40618;51.166;10.322;2023-01-27T07:36:55;97939.31;;;-0.74;89.96
26865;BME280;40618;51.166;10.322;2023-01-27T07:39:21;97945.28;;;-0.72;89.65
26865;BME280;40618;51.166;10.322;2023-01-27T07:41:48;97934.25;;;-0.73;89.76
26865;BME280;40618;51.166;10.322;2023-01-27T07:44:13;97934.25;;;-0.73;89.87
26865;BME280;40618;51.166;10.322;2023-01-27T07:46:39;97941.06;;;-0.72;90.02
26865;BME280;40618;51.166;10.322;2023-01-27T07:49:05;97944.50;;;-0.70;89.38
26865;BME280;40618;51.166;10.322;2023-01-27T07:51:30;97946.22;;;-0.69;89.80
26865;BME280;40618;51.166;10.322;2023-01-27T07:53:56;97953.03;;;-0.68;89.48
26865;BME280;40618;51.166;10.322;2023-01-27T07:56:22;97951.28;;;-0.69;89.45
26865;BME280;40618;51.166;10.322;2023-01-27T07:58:47;97953.84;;;-0.69;89.77
26865;BME280;40618;51.166;10.322;2023-01-27T08:01:13;97952.19;;;-0.66;89.60
26865;BME280;40618;51.166;10.322;2023-01-27T08:03:39;97952.16;;;-0.68;89.56
26865;BME280;40618;51.166;10.322;2023-01-27T08:06:06;97958.94;;;-0.67;89.55
26865;BME280;40618;51.166;10.322;2023-01-27T08:08:33;97964.09;;;-0.65;89.42
26865;BME280;40618;51.166;10.322;2023-01-27T08:11:00;97970.06;;;-0.63;89.55
26865;BME280;40618;51.166;10.322;2023-01-27T08:13:27;97971.78;;;-0.62;89.78
26865;BME280;40618;51.166;10.322;2023-01-27T08:15:57;97980.25;;;-0.63;89.46
26865;BME280;40618;51.166;10.322;2023-01-27T08:18:24;97982.81;;;-0.62;90.10
26865;BME280;40618;51.166;10.322;2023-01-27T08:20:52;97979.44;;;-0.62;89.45
26865;BME280;40618;51.166;10.322;2023-01-27T08:23:20;97986.31;;;-0.58;89.62
26865;BME280;40618;51.166;10.322;2023-01-27T08:25:53;97981.25;;;-0.57;89.93
26865;BME280;40618;51.166;10.322;2023-01-27T08:28:25;97984.59;;;-0.58;89.82
26865;BME280;40618;51.166;10.322;2023-01-27T08:30:52;97987.13;;;-0.59;89.48
26865;BME280;40618;51.166;10.322;2023-01-27T08:33:19;97983.72;;;-0.60;89.68
26865;BME280;40618;51.166;10.322;2023-01-27T08:35:47;97993.13;;;-0.57;89.80
26865;BME280;40618;51.166;10.322;2023-01-27T08:38:16;97992.25;;;-0.56;89.45
26865;BME280;40618;51.166;10.322;2023-01-27T08:40:44;97990.56;;;-0.57;89.81
26865;BME280;40618;51.166;10.322;2023-01-27T08:43:12;97991.38;;;-0.58;89.90
26865;BME280;40618;51.166;10.322;2023-01-27T08:45:41;97992.22;;;-0.58;90.00
26865;BME280;40618;51.166;10.322;2023-01-27T08:48:07;97993.16;;;-0.56;89.29
26865;BME280;40618;51.166;10.322;2023-01-27T08:50:33;98001.63;;;-0.55;89.94
26865;BME280;40618;51.166;10.322;2023-01-27T08:52:59;97995.72;;;-0.54;89.88
26865;BME280;40618;51.166;10.322;2023-01-27T08:55:30;98007.66;;;-0.52;89.88
26865;BME280;40618;51.166;10.322;2023-01-27T08:57:57;98006.84;;;-0.50;90.00
26865;BME280;40618;51.166;10.322;2023-01-27T09:00:23;98013.59;;;-0.51;89.74
26865;BME280;40618;51.166;10.322;2023-01-27T09:02:50;98012.78;;;-0.50;90.11
26865;BME280;40618;51.166;10.322;2023-01-27T09:05:17;98011.09;;;-0.48;89.71
26865;BME280;40618;51.166;10.322;2023-01-27T09:07:45;98014.53;;;-0.47;90.03
26865;BME280;40618;51.166;10.322;2023-01-27T09:10:12;98012.00;;;-0.46;89.62
26865;BME280;40618;51.166;10.322;2023-01-27T09:12:39;98006.00;;;-0.48;89.90
26865;BME280;40618;51.166;10.322;2023-01-27T09:15:06;98009.47;;;-0.46;89.57
26865;BME280;40618;51.166;10.322;2023-01-27T09:17:32;98012.03;;;-0.44;90.03
26865;BME280;40618;51.166;10.322;2023-01-27T09:19:58;98012.88;;;-0.44;90.01
26865;BME280;40618;51.166;10.322;2023-01-27T09:22:23;98020.63;;;-0.41;89.80
26865;BME280;40618;51.166;10.322;2023-01-27T09:24:49;98007.91;;;-0.41;90.17
26865;BME280;40618;51.166;10.322;2023-01-27T09:27:15;98009.59;;;-0.40;89.77
26865;BME280;40618;51.166;10.322;2023-01-27T09:29:41;98016.41;;;-0.39;90.06
26865;BME280;40618;51.166;10.322;2023-01-27T09:32:06;98012.19;;;-0.38;90.24
26865;BME280;40618;51.166;10.322;2023-01-27T09:34:34;98011.31;;;-0.39;89.75
26865;BME280;40618;51.166;10.322;2023-01-27T09:37:10;98024.00;;;-0.40;90.01
26865;BME280;40618;51.166;10.322;2023-01-27T09:39:58;98021.50;;;-0.39;89.77
26865;BME280;40618;51.166;10.322;2023-01-27T09:42:40;98026.59;;;-0.39;89.72
26865;BME280;40618;51.166;10.322;2023-01-27T09:48:32;98034.34;;;-0.34;89.93
26865;BME280;40618;51.166;10.322;2023-01-27T09:51:15;98036.00;;;-0.35;89.53
26865;BME280;40618;51.166;10.322;2023-01-27T09:57:15;98042.75;;;-0.37;89.58
26865;BME280;40618;51.166;10.322;2023-01-27T10:08:34;98032.69;;;-0.30;90.28
26865;BME280;40618;51.166;10.322;2023-01-27T10:20:40;98040.50;;;-0.24;89.84
26865;BME280;40618;51.166;10.322;2023-01-27T10:23:29;98045.59;;;-0.24;90.07
26865;BME280;40618;51.166;10.322;2023-01-27T10:26:34;98043.91;;;-0.22;89.99
26865;BME280;40618;51.166;10.322;2023-01-27T10:29:13;98048.16;;;-0.23;90.14
26865;BME280;40618;51.166;10.322;2023-01-27T10:32:08;98043.09;;;-0.21;89.64
26865;BME280;40618;51.166;10.322;2023-01-27T10:35:16;98041.47;;;-0.19;90.39
26865;BME280;40618;51.166;10.322;2023-01-27T10:41:17;98042.28;;;-0.20;90.06
26865;BME280;40618;51.166;10.322;2023-01-27T10:49:54;98054.25;;;-0.16;90.27
26865;BME280;40618;51.166;10.322;2023-01-27T10:52:29;98046.63;;;-0.14;90.11
26865;BME280;40618;51.166;10.322;2023-01-27T10:55:12;98050.06;;;-0.12;89.92
26865;BME280;40618;51.166;10.322;2023-01-27T10:58:06;98059.44;;;-0.11;89.83
26865;BME280;40618;51.166;10.322;2023-01-27T11:00:55;98051.81;;;-0.10;89.77
26865;BME280;40618;51.166;10.322;2023-01-27T11:03:34;98052.72;;;-0.08;89.76
26865;BME280;40618;51.166;10.322;2023-01-27T11:06:26;98046.75;;;-0.08;89.81
26865;BME280;40618;51.166;10.322;2023-01-27T11:09:16;98047.69;;;-0.05;89.82
26865;BME280;40618;51.166;10.322;2023-01-27T11:12:14;98051.97;;;-0.04;89.94
26865;BME280;40618;51.166;10.322;2023-01-27T11:14:48;98047.81;;;0.00;89.85
26865;BME280;40618;51.166;10.322;2023-01-27T11:25:52;98041.09;;;0.05;90.10
26865;BME280;40618;51.166;10.322;2023-01-27T11:33:59;98027.59;;;0.08;90.00
26865;BME280;40618;51.166;10.322;2023-01-27T11:36:33;98026.78;;;0.10;90.05
26865;BME280;40618;51.166;10.322;2023-01-27T11:38:59;98032.81;;;0.14;89.98
26865;BME280;40618;51.166;10.322;2023-01-27T11:41:31;98032.84;;;0.15;89.60
26865;BME280;40618;51.166;10.322;2023-01-27T11:44:06;98026.03;;;0.14;89.73
26865;BME280;40618;51.166;10.322;2023-01-27T11:46:39;98023.47;;;0.14;90.23
26865;BME280;40618;51.166;10.322;2023-01-27T11:49:05;98021.75;;;0.13;89.98
26865;BME280;40618;51.166;10.322;2023-01-27T11:51:37;98022.63;;;0.14;89.86
26865;BME280;40618;51.166;10.322;2023-01-27T11:54:11;98014.13;;;0.15;90.30
26865;BME280;40618;51.166;10.322;2023-01-27T11:56:48;98009.03;;;0.15;90.05
26865;BME280;40618;51.166;10.322;2023-01-27T11:59:22;98015.88;;;0.16;90.17
26865;BME280;40618;51.166;10.322;2023-01-27T12:02:02;98002.31;;;0.17;89.67
26865;BME280;40618;51.166;10.322;2023-01-27T12:04:54;98005.81;;;0.22;90.52
26865;BME280;40618;51.166;10.322;2023-01-27T12:07:48;98006.63;;;0.21;89.94
26865;BME280;40618;51.166;10.322;2023-01-27T12:10:31;98004.94;;;0.22;89.69
26865;BME280;40618;51.166;10.322;2023-01-27T12:13:15;98004.13;;;0.23;90.50
26865;BME280;40618;51.166;10.322;2023-01-27T12:15:55;98009.22;;;0.24;90.12
26865;BME280;40618;51.166;10.322;2023-01-27T12:18:25;97999.03;;;0.24;90.45
26865;BME280;40618;51.166;10.322;2023-01-27T12:21:00;97990.63;;;0.28;90.36
26865;BME280;40618;51.166;10.322;2023-01-27T12:23:57;97994.94;;;0.31;90.31
26865;BME280;40618;51.166;10.322;2023-01-27T12:26:43;97994.13;;;0.33;89.98
26865;BME280;40618;51.166;10.322;2023-01-27T12:29:18;97992.44;;;0.34;90.38
26865;BME280;40618;51.166;10.322;2023-01-27T12:31:52;97987.41;;;0.36;89.91
26865;BME280;40618;51.166;10.322;2023-01-27T12:34:24;97989.97;;;0.37;89.91
26865;BME280;40618;51.166;10.322;2023-01-27T12:36:54;97987.44;;;0.37;89.83
26865;BME280;40618;51.166;10.322;2023-01-27T12:39:31;97988.28;;;0.39;90.01
26865;BME280;40618;51.166;10.322;2023-01-27T12:42:01;97980.66;;;0.39;90.01
26865;BME280;40618;51.166;10.322;2023-01-27T12:44:39;97996.00;;;0.42;89.95
26865;BME280;40618;51.166;10.322;2023-01-27T12:47:33;97990.06;;;0.43;90.23
26865;BME280;40618;51.166;10.322;2023-01-27T12:50:20;97988.41;;;0.44;89.96
26865;BME280;40618;51.166;10.322;2023-01-27T12:58:46;97992.72;;;0.48;90.17
26865;BME280;40618;51.166;10.322;2023-01-27T13:01:27;97985.09;;;0.49;89.83
26865;BME280;40618;51.166;10.322;2023-01-27T13:03:59;97989.31;;;0.49;89.96
26865;BME280;40618;51.166;10.322;2023-01-27T13:06:50;97985.06;;;0.48;90.35
26865;BME280;40618;51.166;10.322;2023-01-27T13:12:14;97987.63;;;0.48;89.90
26865;BME280;40618;51.166;10.322;2023-01-27T13:14:50;97988.47;;;0.48;89.84
26865;BME280;40618;51.166;10.322;2023-01-27T13:17:40;97997.81;;;0.48;89.94
26865;BME280;40618;51.166;10.322;2023-01-27T13:22:45;98001.19;;;0.47;90.28
26865;BME280;40618;51.166;10.322;2023-01-27T13:25:25;97998.63;;;0.47;90.02
26865;BME280;40618;51.166;10.322;2023-01-27T13:27:57;97996.09;;;0.47;90.29
26865;BME280;40618;51.166;10.322;2023-01-27T13:30:26;97995.28;;;0.48;90.55
26865;BME280;40618;51.166;10.322;2023-01-27T13:33:15;98006.34;;;0.50;89.76
26865;BME280;40618;51.166;10.322;2023-01-27T13:36:11;97998.69;;;0.50;90.32
26865;BME280;40618;51.166;10.322;2023-01-27T13:38:58;98003.78;;;0.50;89.75
26865;BME280;40618;51.166;10.322;2023-01-27T13:41:38;98000.38;;;0.49;90.00
26865;BME280;40618;51.166;10.322;2023-01-27T13:44:34;98003.75;;;0.48;90.12
26865;BME280;40618;51.166;10.322;2023-01-27T13:47:08;98003.75;;;0.48;90.20
26865;BME280;40618;51.166;10.322;2023-01-27T13:52:56;97996.88;;;0.44;90.41
26865;BME280;40618;51.166;10.322;2023-01-27T13:56:00;98000.28;;;0.45;89.98
26865;BME280;40618;51.166;10.322;2023-01-27T14:10:40;98010.59;;;0.49;90.23
26865;BME280;40618;51.166;10.322;2023-01-27T14:16:39;98013.97;;;0.50;89.88
26865;BME280;40618;51.166;10.322;2023-01-27T14:19:46;98013.97;;;0.50;89.83
26865;BME280;40618;51.166;10.322;2023-01-27T14:28:07;98013.13;;;0.49;89.70
26865;BME280;40618;51.166;10.322;2023-01-27T14:30:43;98013.16;;;0.51;90.36
26865;BME280;40618;51.166;10.322;2023-01-27T14:33:38;98021.66;;;0.52;90.01
26865;BME280;40618;51.166;10.322;2023-01-27T14:51:15;98030.16;;;0.52;90.52
26865;BME280;40618;51.166;10.322;2023-01-27T14:56:50;98025.91;;;0.53;90.23
26865;BME280;40618;51.166;10.322;2023-01-27T15:05:58;98043.72;;;0.51;90.27
26865;BME280;40618;51.166;10.322;2023-01-27T15:08:36;98039.47;;;0.52;90.56
26865;BME280;40618;51.166;10.322;2023-01-27T15:27:54;98059.03;;;0.51;90.28